Pagrindinis puslapis
METAR-TAF:

METAR-TAF

Oro uostai :

Antakija, Turkija

platuma: 36-21-46N, ilguma: 36-16-56E, Aukštis: 1950 m

Dabartinis oras

Ataskaita buvo paskelbta 18 minutes, ne 04:50 UTC
Vėjas 9 kt iš Vakarų, svyruoja nuo Pietvakarių ir Vakarų/Šiaurės Vakarų
Temperatūra 28°C
Drėgmė 62%
Slėgis 1008 hPa
Matomumas 10 km arba daugiau
nėra debesų žemiau 1500 m ir nėra kamuolinių lietaus debesų

METAR: LTDA 160450Z 26009KT 230V290 CAVOK 28/20 Q1008 NOSIG

Laikas: 08:08 (05:08 UTC)

Prognozė

Ataskaita buvo paskelbta 3 valandos ir 28 minutes, ne 01:40 UTC
Prognozė galioja nuo 16 metu 03 UTC su 16 metu 12 UTC
Vėjas 15 kt iš Vakarų/Pietvakarių
Matomumas 10 km arba daugiau
nėra debesų žemiau 1500 m ir nėra kamuolinių lietaus debesų
Laikinai
nuo 16 metu 10 UTC su 16 metu 12 UTC
Vėjas 15 kt iš Vakarų/Pietvakarių su gūsio iki 25 kt

TAF: LTDA 160140Z 1603/1612 25015KT CAVOK TEMPO 1610/1612 25015G25KT

Orai ataskaitas ir orų prognozės (METAR, TAF).

turimą stotys yra geltonos ir raudonos taškus žemėlapyje.

Perkelti pele per norėdami pamatyti stoties vardą.

Tada spustelėkite, norėdami matyti oro stebėjimo ir prognozės.

Norėdami pakeisti žemėlapį: spustelėkite ant žalios mygtukų su juodo kryžiaus žemyn,; žalią mygtuką su brūkšneliu, jei norite nutolinti; arba žalių rodyklių gretimoms žemėlapius.


METAR-TAF: